Time;durP1;ratioP1;P1;durP2;ratioP2;P2;SDS_P1;SDS_P2;PMS_P1;PMS_P2;Temp;Humidity;BMP_temperature;BMP_pressure;BME280_temperature;BME280_humidity;BME280_pressure;Samples;Min_cycle;Max_cycle;Signal;HPM_P1;HPM_P2
2021/03/29 00:01:31;;;;;;;20.58;9.88;;;10.50;99.90;;;;;;5029353;28;20133;-78
2021/03/29 00:03:58;;;;;;;21.27;10.43;;;10.50;99.90;;;;;;5026667;28;20085;-78
2021/03/29 00:06:26;;;;;;;17.60;10.02;;;10.60;99.90;;;;;;5030353;28;20054;-78
2021/03/29 00:08:55;;;;;;;19.92;10.13;;;10.50;99.90;;;;;;5028017;28;20095;-78
2021/03/29 00:11:23;;;;;;;22.95;11.00;;;10.40;99.90;;;;;;5022169;28;20082;-79
2021/03/29 00:13:52;;;;;;;20.52;10.45;;;10.40;99.90;;;;;;5021215;28;20077;-79
2021/03/29 00:16:20;;;;;;;18.80;10.55;;;10.40;99.90;;;;;;5022067;28;20195;-79
2021/03/29 00:18:47;;;;;;;18.10;10.35;;;10.40;99.90;;;;;;5023826;28;20077;-79
2021/03/29 00:21:14;;;;;;;20.23;11.20;;;10.40;99.90;;;;;;5024781;28;20118;-78
2021/03/29 00:23:41;;;;;;;21.27;10.75;;;10.40;99.90;;;;;;5016938;28;20455;-78
2021/03/29 00:26:08;;;;;;;18.77;10.63;;;10.40;99.90;;;;;;5022161;28;20054;-77
2021/03/29 00:28:35;;;;;;;20.55;10.57;;;10.40;99.90;;;;;;5021774;28;20136;-79
2021/03/29 00:31:04;;;;;;;19.27;10.52;;;10.40;99.90;;;;;;5019671;28;20478;-78
2021/03/29 00:33:31;;;;;;;20.42;11.05;;;10.40;99.90;;;;;;5020010;28;20518;-78
2021/03/29 00:35:59;;;;;;;20.25;10.73;;;10.40;99.90;;;;;;5017103;28;20084;-77
2021/03/29 00:38:26;;;;;;;21.20;11.13;;;10.50;99.90;;;;;;5015842;28;20073;-77
2021/03/29 00:40:57;;;;;;;18.35;10.70;;;10.40;99.90;;;;;;5015336;28;20053;-78
2021/03/29 00:43:25;;;;;;;18.10;10.73;;;10.40;99.90;;;;;;5017235;28;20076;-78
2021/03/29 00:45:54;;;;;;;17.13;11.18;;;10.40;99.90;;;;;;5019226;28;20471;-78
2021/03/29 00:48:24;;;;;;;22.02;10.52;;;10.40;99.90;;;;;;5017877;28;20046;-79
2021/03/29 00:50:52;;;;;;;17.80;10.38;;;10.40;99.90;;;;;;5016392;28;20137;-77
2021/03/29 00:53:19;;;;;;;23.10;10.55;;;10.30;99.90;;;;;;5016454;28;20060;-79
2021/03/29 00:55:48;;;;;;;20.67;10.77;;;10.20;99.90;;;;;;5016987;28;20132;-78
2021/03/29 00:58:15;;;;;;;19.08;10.55;;;10.20;99.90;;;;;;5017565;28;20101;-78
2021/03/29 01:00:45;;;;;;;19.55;10.48;;;10.20;99.90;;;;;;5018911;28;20624;-78
2021/03/29 01:03:15;;;;;;;20.27;10.23;;;10.10;99.90;;;;;;5022061;28;20136;-78
2021/03/29 01:05:43;;;;;;;16.10;10.18;;;10.10;99.90;;;;;;5027369;28;20109;-77
2021/03/29 01:08:12;;;;;;;20.75;10.40;;;10.00;99.90;;;;;;5026019;28;20202;-78
2021/03/29 01:10:38;;;;;;;19.95;10.05;;;10.10;99.90;;;;;;5017713;28;20081;-78
2021/03/29 01:13:08;;;;;;;21.95;10.40;;;10.00;99.90;;;;;;5014804;28;20105;-78
2021/03/29 01:15:38;;;;;;;20.20;10.30;;;10.00;99.90;;;;;;5015128;28;20096;-78
2021/03/29 01:18:08;;;;;;;18.20;9.35;;;9.90;99.90;;;;;;5015190;28;20557;-77
2021/03/29 01:20:48;;;;;;;18.85;10.10;;;9.90;99.90;;;;;;5015920;28;20050;-78
2021/03/29 01:23:17;;;;;;;20.08;10.55;;;9.90;99.90;;;;;;5015466;28;20054;-78
2021/03/29 01:25:48;;;;;;;18.35;9.82;;;9.90;99.90;;;;;;5017116;28;20481;-79
2021/03/29 01:28:17;;;;;;;16.38;9.55;;;9.90;99.90;;;;;;5016607;28;20133;-79
2021/03/29 01:30:45;;;;;;;18.48;10.30;;;9.80;99.90;;;;;;5016651;28;20053;-78
2021/03/29 01:33:13;;;;;;;19.25;9.68;;;9.80;99.90;;;;;;5019781;28;20133;-79
2021/03/29 01:35:44;;;;;;;18.63;9.90;;;9.80;99.90;;;;;;5021086;28;20086;-78
2021/03/29 01:38:12;;;;;;;19.77;9.93;;;9.80;99.90;;;;;;5020392;28;20080;-79
2021/03/29 01:40:40;;;;;;;16.35;10.02;;;9.80;99.90;;;;;;5019978;28;20137;-79
2021/03/29 01:43:09;;;;;;;21.25;9.45;;;9.80;99.90;;;;;;5019899;28;20132;-79
2021/03/29 01:45:37;;;;;;;17.10;9.75;;;9.80;99.90;;;;;;5022928;28;20077;-78
2021/03/29 01:48:05;;;;;;;20.98;10.05;;;9.70;99.90;;;;;;5020397;28;20136;-79
2021/03/29 01:50:34;;;;;;;25.88;10.23;;;9.70;99.90;;;;;;5019468;28;20049;-80
2021/03/29 01:53:02;;;;;;;18.00;9.73;;;9.60;99.90;;;;;;5021378;28;20054;-79
2021/03/29 01:55:30;;;;;;;18.02;9.57;;;9.60;99.90;;;;;;5020208;28;20050;-79
2021/03/29 01:57:56;;;;;;;19.17;9.30;;;9.60;99.90;;;;;;5019182;28;20053;-80
2021/03/29 02:00:27;;;;;;;23.70;10.23;;;9.50;99.90;;;;;;5019531;28;20053;-78
2021/03/29 02:02:56;;;;;;;18.48;9.27;;;9.50;99.90;;;;;;5019440;28;20101;-79
2021/03/29 02:05:22;;;;;;;16.90;9.20;;;9.50;99.90;;;;;;5019191;28;20493;-79
2021/03/29 02:07:50;;;;;;;16.67;9.32;;;9.50;99.90;;;;;;5016093;28;20085;-78
2021/03/29 02:10:21;;;;;;;19.00;10.05;;;9.40;99.90;;;;;;5015193;28;20092;-77
2021/03/29 02:12:48;;;;;;;18.15;8.98;;;9.40;99.90;;;;;;5013836;28;20132;-79
2021/03/29 02:15:18;;;;;;;19.13;9.18;;;9.40;99.90;;;;;;5013458;28;20149;-79
2021/03/29 02:17:45;;;;;;;17.75;9.73;;;9.30;99.90;;;;;;5013975;28;20050;-78
2021/03/29 02:20:15;;;;;;;17.08;9.40;;;9.20;99.90;;;;;;5013391;28;20261;-78
2021/03/29 02:22:43;;;;;;;19.27;9.00;;;9.30;99.90;;;;;;5013789;28;20473;-79
2021/03/29 02:25:11;;;;;;;19.95;8.95;;;9.20;99.90;;;;;;5013875;28;20561;-77
2021/03/29 02:27:39;;;;;;;21.30;9.85;;;9.30;99.90;;;;;;5012483;28;20149;-79
2021/03/29 02:30:11;;;;;;;18.63;8.57;;;9.20;99.90;;;;;;5022650;28;20046;-79
2021/03/29 02:32:40;;;;;;;17.63;9.45;;;9.20;99.90;;;;;;5025942;28;20097;-80
2021/03/29 02:35:08;;;;;;;15.77;9.50;;;9.10;99.90;;;;;;5024019;28;20087;-79
2021/03/29 02:37:36;;;;;;;13.63;8.50;;;9.20;99.90;;;;;;5022170;28;20169;-79
2021/03/29 02:40:05;;;;;;;19.00;9.85;;;9.10;99.90;;;;;;5022043;28;20466;-80
2021/03/29 02:42:33;;;;;;;16.08;8.60;;;9.10;99.90;;;;;;5021925;28;20192;-78
2021/03/29 02:45:00;;;;;;;19.73;9.40;;;9.10;99.90;;;;;;5021344;28;20089;-80
2021/03/29 02:47:27;;;;;;;18.10;8.80;;;9.10;99.90;;;;;;5017652;28;20458;-78
2021/03/29 02:49:55;;;;;;;15.85;8.95;;;9.10;99.90;;;;;;5016943;28;20110;-79
2021/03/29 02:52:22;;;;;;;21.45;9.73;;;9.10;99.90;;;;;;5017702;28;20081;-79
2021/03/29 02:54:50;;;;;;;20.88;9.50;;;9.10;99.90;;;;;;5017883;28;20128;-79
2021/03/29 02:57:17;;;;;;;17.48;8.82;;;9.00;99.90;;;;;;5019546;28;20132;-80
2021/03/29 02:59:45;;;;;;;22.50;9.80;;;9.00;99.90;;;;;;5022140;28;20080;-80
2021/03/29 03:02:12;;;;;;;15.48;8.93;;;9.00;99.90;;;;;;5018435;28;20109;-78
2021/03/29 03:04:40;;;;;;;17.80;8.95;;;8.90;99.90;;;;;;5018205;28;20117;-78
2021/03/29 03:07:07;;;;;;;15.65;9.25;;;8.90;99.90;;;;;;5015111;28;20129;-78
2021/03/29 03:09:34;;;;;;;19.52;9.30;;;8.90;99.90;;;;;;5015232;28;20470;-78
2021/03/29 03:12:03;;;;;;;14.48;8.30;;;8.90;99.90;;;;;;5015352;28;20045;-78
2021/03/29 03:14:30;;;;;;;20.33;9.52;;;8.80;99.90;;;;;;5015726;28;20137;-81
2021/03/29 03:16:57;;;;;;;17.98;8.77;;;8.80;99.90;;;;;;5014248;28;20463;-79
2021/03/29 03:19:25;;;;;;;20.80;9.45;;;8.70;99.90;;;;;;5019516;28;20204;-80
2021/03/29 03:21:51;;;;;;;17.40;8.07;;;8.70;99.90;;;;;;5021617;28;20089;-81
2021/03/29 03:24:18;;;;;;;21.42;10.43;;;8.70;99.90;;;;;;5022483;28;20556;-80
2021/03/29 03:26:44;;;;;;;16.45;9.52;;;8.60;99.90;;;;;;5023616;28;20056;-80
2021/03/29 03:29:12;;;;;;;17.65;9.38;;;8.50;99.90;;;;;;5023429;28;20132;-80
2021/03/29 03:31:38;;;;;;;21.02;9.40;;;8.50;99.90;;;;;;5025566;28;20050;-80
2021/03/29 03:34:05;;;;;;;17.15;9.10;;;8.50;99.90;;;;;;5026279;28;20137;-80
2021/03/29 03:36:33;;;;;;;17.60;9.55;;;8.40;99.90;;;;;;5025894;28;20049;-80
2021/03/29 03:39:00;;;;;;;17.38;9.07;;;8.40;99.90;;;;;;5026037;28;20049;-81
2021/03/29 03:41:29;;;;;;;18.92;8.80;;;8.30;99.90;;;;;;5024423;28;20553;-80
2021/03/29 03:43:58;;;;;;;23.75;10.90;;;8.30;99.90;;;;;;5018375;28;20132;-79
2021/03/29 03:46:28;;;;;;;17.33;9.07;;;8.30;99.90;;;;;;5018150;28;20114;-80
2021/03/29 03:48:56;;;;;;;20.15;9.60;;;8.30;99.90;;;;;;5019992;28;20042;-80
2021/03/29 03:51:25;;;;;;;20.67;9.65;;;8.30;99.90;;;;;;5021476;28;20077;-78
2021/03/29 03:53:52;;;;;;;17.55;9.13;;;8.30;99.90;;;;;;5025060;28;20077;-79
2021/03/29 03:56:19;;;;;;;17.58;8.70;;;8.30;99.90;;;;;;5025850;28;20089;-79
2021/03/29 03:58:46;;;;;;;18.60;8.52;;;8.20;99.90;;;;;;5025634;28;20054;-79
2021/03/29 04:01:13;;;;;;;14.43;8.30;;;8.20;99.90;;;;;;5018483;28;20104;-79
2021/03/29 04:03:40;;;;;;;20.98;8.50;;;8.20;99.90;;;;;;5024349;28;20137;-78
2021/03/29 04:06:07;;;;;;;20.85;9.25;;;8.20;99.90;;;;;;5034966;28;20060;-80
2021/03/29 04:08:33;;;;;;;16.55;8.60;;;8.20;99.90;;;;;;5035018;28;20514;-80
2021/03/29 04:11:00;;;;;;;18.65;7.90;;;8.30;99.90;;;;;;5025489;28;20050;-79
2021/03/29 04:13:28;;;;;;;16.90;7.88;;;8.30;99.90;;;;;;5022907;28;20050;-79
2021/03/29 04:15:55;;;;;;;16.67;8.52;;;8.30;99.90;;;;;;5020889;28;20117;-79
2021/03/29 04:18:22;;;;;;;20.98;8.60;;;8.30;99.90;;;;;;5022138;28;20046;-79
2021/03/29 04:20:50;;;;;;;20.48;8.95;;;8.30;99.90;;;;;;5022497;28;20624;-79
2021/03/29 04:23:18;;;;;;;18.67;8.30;;;8.30;99.90;;;;;;5021890;28;20133;-79
2021/03/29 04:25:44;;;;;;;17.58;7.90;;;8.30;99.90;;;;;;5021383;28;20054;-79
2021/03/29 04:28:11;;;;;;;14.73;8.23;;;8.30;99.90;;;;;;5021531;28;20046;-79
2021/03/29 04:30:37;;;;;;;18.30;7.95;;;8.30;99.90;;;;;;5023785;28;20081;-78
2021/03/29 04:33:04;;;;;;;19.10;7.47;;;8.40;99.90;;;;;;5023988;28;20081;-79
2021/03/29 04:35:31;;;;;;;15.73;8.13;;;8.40;99.90;;;;;;5023320;28;20049;-79
2021/03/29 04:37:58;;;;;;;13.55;8.25;;;8.30;99.90;;;;;;5021863;28;20426;-79
2021/03/29 04:40:26;;;;;;;14.70;8.00;;;8.30;99.90;;;;;;5022648;28;20077;-79
2021/03/29 04:42:54;;;;;;;17.42;8.40;;;8.20;99.90;;;;;;5020571;28;20077;-79
2021/03/29 04:45:22;;;;;;;17.60;8.25;;;8.20;99.90;;;;;;5021274;28;20633;-80
2021/03/29 04:47:48;;;;;;;16.52;7.95;;;8.10;99.90;;;;;;5021143;28;20084;-79
2021/03/29 04:50:17;;;;;;;22.95;8.48;;;8.00;99.90;;;;;;5023684;28;20534;-79
2021/03/29 04:52:44;;;;;;;17.95;8.38;;;8.00;99.90;;;;;;5023961;28;20050;-79
2021/03/29 04:55:15;;;;;;;21.10;9.73;;;7.90;99.90;;;;;;5024006;28;20084;-79
2021/03/29 04:57:41;;;;;;;18.85;8.32;;;7.90;99.90;;;;;;5021875;28;20143;-79
2021/03/29 05:00:09;;;;;;;14.48;8.13;;;7.90;99.90;;;;;;5020487;28;20073;-79
2021/03/29 05:02:36;;;;;;;16.75;8.40;;;7.90;99.90;;;;;;5042682;23;20071;-73
2021/03/29 05:05:03;;;;;;;18.05;8.05;;;7.90;99.90;;;;;;5023307;28;20052;-76
2021/03/29 05:07:30;;;;;;;19.63;8.65;;;7.80;99.90;;;;;;5032497;28;20136;-76
2021/03/29 05:09:56;;;;;;;14.93;8.20;;;7.80;99.90;;;;;;5033113;28;20573;-77
2021/03/29 05:12:23;;;;;;;14.25;8.50;;;7.80;99.90;;;;;;5033113;28;20053;-76
2021/03/29 05:14:51;;;;;;;16.63;7.85;;;7.80;99.90;;;;;;5032933;28;20428;-75
2021/03/29 05:17:17;;;;;;;15.27;8.02;;;7.90;99.90;;;;;;5032963;28;20133;-73
2021/03/29 05:19:44;;;;;;;16.90;7.68;;;7.90;99.90;;;;;;5033217;28;20136;-77
2021/03/29 05:22:12;;;;;;;16.10;8.32;;;7.90;99.90;;;;;;5033128;28;20132;-73
2021/03/29 05:24:39;;;;;;;20.52;8.48;;;7.90;99.90;;;;;;5032851;28;20045;-76
2021/03/29 05:27:06;;;;;;;16.95;7.95;;;7.90;99.90;;;;;;5032892;28;20136;-76
2021/03/29 05:29:41;;;;;;;17.63;7.95;;;7.90;99.90;;;;;;5032627;28;20478;-76
2021/03/29 05:32:16;;;;;;;17.35;7.55;;;7.90;99.90;;;;;;5033190;28;20049;-76
2021/03/29 05:34:43;;;;;;;14.32;7.57;;;8.00;99.90;;;;;;5032882;28;20100;-75
2021/03/29 05:37:10;;;;;;;17.60;8.48;;;8.00;99.90;;;;;;5032028;28;20057;-76
2021/03/29 05:39:37;;;;;;;17.73;8.35;;;8.00;99.90;;;;;;5009780;28;20518;-76
2021/03/29 05:42:04;;;;;;;16.98;8.27;;;8.00;99.90;;;;;;5012630;28;20081;-71
2021/03/29 05:44:31;;;;;;;12.18;7.30;;;8.10;99.90;;;;;;5008861;28;20129;-74
2021/03/29 05:46:58;;;;;;;18.52;8.38;;;8.10;99.90;;;;;;5000821;28;20058;-74
2021/03/29 05:49:24;;;;;;;14.98;7.15;;;8.20;99.90;;;;;;5001495;28;20054;-74
2021/03/29 05:51:51;;;;;;;19.10;7.68;;;8.20;99.90;;;;;;5002753;28;20141;-75
2021/03/29 05:54:18;;;;;;;18.33;7.80;;;8.30;99.90;;;;;;4999976;28;20053;-74
2021/03/29 05:56:45;;;;;;;18.30;8.13;;;8.40;99.90;;;;;;4997221;28;20081;-74
2021/03/29 05:59:13;;;;;;;12.52;7.57;;;8.40;99.90;;;;;;4992848;28;20487;-74
2021/03/29 06:01:45;;;;;;;16.20;7.93;;;8.40;99.90;;;;;;4992896;28;20050;-74
2021/03/29 06:04:13;;;;;;;16.10;7.22;;;8.50;99.90;;;;;;4992607;28;20137;-74
2021/03/29 06:06:41;;;;;;;18.02;7.88;;;8.50;99.90;;;;;;4992549;28;20060;-74
2021/03/29 06:09:08;;;;;;;14.65;7.72;;;8.50;99.90;;;;;;4992724;28;20050;-73
2021/03/29 06:11:36;;;;;;;16.70;7.55;;;8.60;99.90;;;;;;4992924;28;20069;-74
2021/03/29 06:14:14;;;;;;;15.38;7.25;;;8.60;99.90;;;;;;4992824;28;20677;-74
2021/03/29 06:16:58;;;;;;;15.70;7.55;;;8.70;99.90;;;;;;4992413;28;20046;-74
2021/03/29 06:19:46;;;;;;;16.92;8.55;;;8.80;99.90;;;;;;4992570;28;20125;-72
2021/03/29 06:22:16;;;;;;;15.80;7.18;;;8.90;99.90;;;;;;4994864;28;20049;-74
2021/03/29 06:24:57;;;;;;;18.35;7.60;;;9.00;99.90;;;;;;4999518;28;20132;-74
2021/03/29 06:27:26;;;;;;;17.13;6.95;;;9.10;99.90;;;;;;5007025;28;20506;-73
2021/03/29 06:30:14;;;;;;;12.05;6.57;;;9.40;99.90;;;;;;5010493;28;20080;-74
2021/03/29 06:33:03;;;;;;;16.48;7.00;;;10.00;99.90;;;;;;5011948;28;20168;-74
2021/03/29 06:35:33;;;;;;;11.48;6.80;;;10.70;99.90;;;;;;5011798;28;20411;-74
2021/03/29 06:38:27;;;;;;;13.35;7.07;;;11.30;99.90;;;;;;5011032;28;20128;-73
2021/03/29 06:40:57;;;;;;;14.60;6.90;;;11.90;99.90;;;;;;4998134;28;20054;-73
2021/03/29 06:43:26;;;;;;;16.92;6.72;;;12.40;99.90;;;;;;5011750;28;20057;-75
2021/03/29 06:45:55;;;;;;;17.85;6.82;;;12.80;99.90;;;;;;5012667;28;20521;-75
2021/03/29 06:48:28;;;;;;;15.27;6.40;;;13.40;99.90;;;;;;5010807;28;20516;-75
2021/03/29 06:51:12;;;;;;;15.43;6.32;;;13.90;99.90;;;;;;5011643;28;20532;-75
2021/03/29 06:53:40;;;;;;;11.82;6.47;;;14.70;99.90;;;;;;5011783;28;20049;-75
2021/03/29 06:56:25;;;;;;;14.38;7.28;;;15.20;99.90;;;;;;5011578;28;20129;-75
2021/03/29 06:58:53;;;;;;;15.05;7.15;;;15.60;99.90;;;;;;5011690;28;20053;-75
2021/03/29 07:01:21;;;;;;;16.65;7.03;;;15.70;99.90;;;;;;5011444;28;20466;-75
2021/03/29 07:03:50;;;;;;;13.40;7.00;;;15.90;99.90;;;;;;5010280;28;20455;-74
2021/03/29 07:06:20;;;;;;;19.55;8.00;;;15.90;99.90;;;;;;5011429;28;20053;-74
2021/03/29 07:08:48;;;;;;;15.80;8.18;;;16.00;99.90;;;;;;5011395;28;20050;-72
2021/03/29 07:11:16;;;;;;;18.70;7.70;;;16.10;99.90;;;;;;5011242;28;20136;-74
2021/03/29 07:13:43;;;;;;;16.38;7.93;;;16.30;99.90;;;;;;5011222;28;20085;-75
2021/03/29 07:16:11;;;;;;;21.95;8.20;;;16.50;99.90;;;;;;5011069;28;20478;-72
2021/03/29 07:18:38;;;;;;;18.02;8.32;;;16.60;99.90;;;;;;5009657;28;20128;-75
2021/03/29 07:21:06;;;;;;;18.77;7.82;;;16.70;99.90;;;;;;5008397;28;20053;-75
2021/03/29 07:23:35;;;;;;;18.30;9.07;;;16.90;99.90;;;;;;5018082;28;20056;-75
2021/03/29 07:26:01;;;;;;;13.73;7.78;;;17.20;99.90;;;;;;5030220;28;20132;-73
2021/03/29 07:28:29;;;;;;;21.17;8.35;;;17.40;99.90;;;;;;5029273;28;20046;-74
2021/03/29 07:31:00;;;;;;;13.38;7.00;;;17.50;99.90;;;;;;5029310;28;20061;-73
2021/03/29 07:33:50;;;;;;;15.80;6.90;;;17.70;99.90;;;;;;5029658;28;20054;-74
2021/03/29 07:36:38;;;;;;;14.18;6.88;;;17.80;99.90;;;;;;5024907;28;20144;-74
2021/03/29 07:39:06;;;;;;;17.77;7.50;;;18.00;99.90;;;;;;5013806;28;20052;-75
2021/03/29 07:41:32;;;;;;;15.65;7.35;;;18.20;99.90;;;;;;5013684;28;20123;-75
2021/03/29 07:44:17;;;;;;;14.35;7.53;;;18.30;99.90;;;;;;5014035;28;20058;-74
2021/03/29 07:46:47;;;;;;;11.48;6.55;;;18.00;99.90;;;;;;5013595;28;20048;-74
2021/03/29 07:49:45;;;;;;;14.68;6.88;;;18.00;99.90;;;;;;5013132;28;20046;-81
2021/03/29 07:52:28;;;;;;;14.13;7.00;;;17.70;99.90;;;;;;5013801;28;20391;-75
2021/03/29 07:54:57;;;;;;;12.25;6.40;;;17.80;99.90;;;;;;5014029;28;20057;-76
2021/03/29 07:58:04;;;;;;;13.85;6.95;;;17.80;99.90;;;;;;5019976;28;20114;-75
2021/03/29 08:00:48;;;;;;;17.42;6.60;;;18.20;99.90;;;;;;5032620;28;20046;-76
2021/03/29 08:03:52;;;;;;;13.20;5.97;;;18.60;99.90;;;;;;5017707;28;20145;-75
2021/03/29 08:06:44;;;;;;;18.95;5.57;;;18.80;99.90;;;;;;5013569;28;20529;-77
2021/03/29 08:09:17;;;;;;;13.50;6.05;;;19.00;99.90;;;;;;5012896;28;20081;-74
2021/03/29 08:12:01;;;;;;;12.98;5.55;;;19.10;99.90;;;;;;5013320;28;20157;-75
2021/03/29 08:14:30;;;;;;;15.07;6.18;;;18.80;99.90;;;;;;5014005;28;20052;-75
2021/03/29 08:16:56;;;;;;;14.07;7.22;;;19.10;99.90;;;;;;5013442;28;20192;-74
2021/03/29 08:19:25;;;;;;;20.25;5.82;;;19.30;99.90;;;;;;5013007;28;20483;-75
2021/03/29 08:21:53;;;;;;;13.50;5.72;;;19.40;99.90;;;;;;5013301;28;20053;-77
2021/03/29 08:24:24;;;;;;;13.18;4.82;;;19.40;99.90;;;;;;5013568;28;20506;-75
2021/03/29 08:26:54;;;;;;;10.43;4.50;;;18.90;99.90;;;;;;5013699;28;20076;-75
2021/03/29 08:29:31;;;;;;;12.70;4.72;;;19.10;99.90;;;;;;5013182;28;20126;-75
2021/03/29 08:32:16;;;;;;;9.45;4.35;;;19.50;99.90;;;;;;5013676;28;20490;-75
2021/03/29 08:34:55;;;;;;;15.38;4.60;;;19.50;99.90;;;;;;5013804;28;20061;-75
2021/03/29 08:37:24;;;;;;;8.93;4.60;;;19.90;99.90;;;;;;5013442;28;20060;-75
2021/03/29 08:39:52;;;;;;;11.60;4.22;;;20.50;99.90;;;;;;5013002;28;20587;-77
2021/03/29 08:42:21;;;;;;;10.23;4.40;;;20.80;99.90;;;;;;5013366;28;20187;-76
2021/03/29 08:44:50;;;;;;;11.32;4.38;;;21.20;99.90;;;;;;5013444;28;20210;-75
2021/03/29 08:47:19;;;;;;;13.30;4.20;;;21.40;98.30;;;;;;5012923;28;20065;-75
2021/03/29 08:49:50;;;;;;;11.02;4.55;;;21.20;96.50;;;;;;5011767;28;20136;-75
2021/03/29 08:52:16;;;;;;;11.07;3.97;;;20.70;97.20;;;;;;5016077;28;20085;-74
2021/03/29 08:54:55;;;;;;;9.65;4.43;;;20.60;97.80;;;;;;5018329;28;20133;-74
2021/03/29 08:57:25;;;;;;;16.20;4.80;;;20.60;98.20;;;;;;5017685;28;20136;-77
2021/03/29 08:59:56;;;;;;;11.82;4.75;;;20.70;97.10;;;;;;5012404;28;20062;-74
2021/03/29 09:02:23;;;;;;;11.73;3.80;;;20.80;96.40;;;;;;5012882;28;20141;-75
2021/03/29 09:04:55;;;;;;;10.68;6.70;;;20.60;96.10;;;;;;5012749;28;20133;-75
2021/03/29 09:07:28;;;;;;;10.80;4.25;;;20.60;94.70;;;;;;5012781;28;20049;-76
2021/03/29 09:09:54;;;;;;;14.23;4.30;;;20.40;94.10;;;;;;5012369;28;20490;-75
2021/03/29 09:12:32;;;;;;;9.10;4.22;;;20.20;93.40;;;;;;5012659;28;20068;-76
2021/03/29 09:15:00;;;;;;;13.10;4.32;;;20.20;94.10;;;;;;5012743;28;20075;-75
2021/03/29 09:17:32;;;;;;;12.70;4.28;;;20.10;94.10;;;;;;5012888;28;20049;-79
2021/03/29 09:19:59;;;;;;;11.35;4.10;;;20.40;92.60;;;;;;5012549;28;20542;-76
2021/03/29 09:22:28;;;;;;;17.15;4.20;;;20.20;91.50;;;;;;5012620;28;20230;-77
2021/03/29 09:24:54;;;;;;;8.57;3.85;;;20.10;91.00;;;;;;5012762;28;20510;-76
2021/03/29 09:27:28;;;;;;;7.20;3.70;;;19.70;92.20;;;;;;5012300;28;20145;-77
2021/03/29 09:29:55;;;;;;;9.68;3.70;;;19.70;92.80;;;;;;5011440;28;20053;-76
2021/03/29 09:32:23;;;;;;;8.50;3.88;;;19.60;91.50;;;;;;5012378;28;20188;-75
2021/03/29 09:34:51;;;;;;;10.77;3.50;;;19.30;91.20;;;;;;5030507;28;20132;-75
2021/03/29 09:37:18;;;;;;;11.65;3.97;;;19.10;91.20;;;;;;5031911;28;20424;-75
2021/03/29 09:39:45;;;;;;;12.18;3.63;;;19.00;91.80;;;;;;5031364;28;20593;-75
2021/03/29 09:42:15;;;;;;;16.48;3.78;;;18.80;88.90;;;;;;5031733;28;20153;-74
2021/03/29 09:44:42;;;;;;;10.65;3.92;;;18.60;87.80;;;;;;5031489;28;20084;-75
2021/03/29 09:47:09;;;;;;;8.82;3.50;;;18.50;86.40;;;;;;5031739;28;20084;-74
2021/03/29 09:49:49;;;;;;;7.53;4.03;;;18.50;88.70;;;;;;5030919;28;20053;-75
2021/03/29 09:52:16;;;;;;;7.90;3.47;;;18.60;88.50;;;;;;5031457;28;20136;-75
2021/03/29 09:54:46;;;;;;;11.60;3.45;;;18.60;86.60;;;;;;5029298;28;20075;-74
2021/03/29 09:57:15;;;;;;;9.70;4.03;;;18.80;88.00;;;;;;5011625;28;20140;-74
2021/03/29 09:59:44;;;;;;;7.32;3.65;;;18.90;87.80;;;;;;5010926;28;20739;-74
2021/03/29 10:02:13;;;;;;;9.05;3.30;;;18.90;82.90;;;;;;5010876;28;20403;-74
2021/03/29 10:04:40;;;;;;;10.02;3.53;;;18.80;79.30;;;;;;5011824;28;20050;-74
2021/03/29 10:07:14;;;;;;;9.20;3.03;;;18.90;77.10;;;;;;5011409;28;20054;-76
2021/03/29 10:09:41;;;;;;;5.88;3.15;;;18.80;74.50;;;;;;5010436;28;20093;-75
2021/03/29 10:12:08;;;;;;;8.90;3.20;;;18.90;77.70;;;;;;5011323;28;20132;-74
2021/03/29 10:14:36;;;;;;;7.57;3.35;;;19.00;76.00;;;;;;5024717;28;20199;-75
2021/03/29 10:17:13;;;;;;;6.93;3.33;;;19.10;74.40;;;;;;5031278;28;20578;-75
2021/03/29 10:19:41;;;;;;;6.35;2.90;;;19.30;75.20;;;;;;5030445;28;20053;-76
2021/03/29 10:22:11;;;;;;;7.15;3.17;;;19.30;71.60;;;;;;5030705;28;20549;-75
2021/03/29 10:24:56;;;;;;;7.72;3.20;;;19.30;70.90;;;;;;5030839;28;20068;-75
2021/03/29 10:27:22;;;;;;;7.88;2.80;;;19.30;69.60;;;;;;5030975;28;20088;-75
2021/03/29 10:29:49;;;;;;;6.43;3.10;;;19.40;67.80;;;;;;5030198;28;20505;-75
2021/03/29 10:32:18;;;;;;;4.65;2.72;;;19.40;68.10;;;;;;5030883;28;20051;-75
2021/03/29 10:34:48;;;;;;;6.53;2.80;;;19.50;65.80;;;;;;5030773;28;20509;-75
2021/03/29 10:37:20;;;;;;;5.78;2.88;;;19.60;67.70;;;;;;5030520;28;20057;-75
2021/03/29 10:39:47;;;;;;;11.90;3.88;;;19.70;66.10;;;;;;5030171;28;20128;-75
2021/03/29 10:42:14;;;;;;;9.77;3.13;;;19.70;66.90;;;;;;5030732;28;20142;-79
2021/03/29 10:44:41;;;;;;;8.63;3.35;;;19.80;64.80;;;;;;5031138;28;20114;-76
2021/03/29 10:47:08;;;;;;;7.07;2.88;;;19.80;65.10;;;;;;5030656;28;20045;-75
2021/03/29 10:49:34;;;;;;;6.60;3.28;;;19.80;64.30;;;;;;5030398;28;20467;-78
2021/03/29 10:52:01;;;;;;;7.57;3.20;;;19.80;61.80;;;;;;5031579;28;20176;-78
2021/03/29 10:54:28;;;;;;;11.48;3.58;;;19.90;61.80;;;;;;5031143;28;20532;-76
2021/03/29 10:56:54;;;;;;;7.10;3.03;;;19.90;62.70;;;;;;5030689;28;20158;-78
2021/03/29 10:59:21;;;;;;;6.50;3.15;;;20.00;63.30;;;;;;5029969;28;20142;-76
2021/03/29 11:01:47;;;;;;;7.72;2.97;;;20.10;61.60;;;;;;5030121;28;20072;-76
2021/03/29 11:06:43;;;;;;;5.82;2.80;;;20.10;60.90;;;;;;5045344;28;20046;-80
2021/03/29 11:09:10;;;;;;;8.23;2.97;;;20.20;59.40;;;;;;5054450;28;20045;-80
2021/03/29 11:11:37;;;;;;;5.32;3.03;;;20.30;60.00;;;;;;5058585;28;20463;-79
2021/03/29 11:14:03;;;;;;;5.60;2.80;;;20.30;59.30;;;;;;5062043;28;20067;-80
2021/03/29 11:16:30;;;;;;;6.38;3.25;;;20.30;59.40;;;;;;5061323;28;20084;-79
2021/03/29 11:18:56;;;;;;;6.88;2.88;;;20.30;60.40;;;;;;5059362;28;20049;-80
2021/03/29 11:21:23;;;;;;;5.30;2.67;;;20.40;59.20;;;;;;5058209;28;20049;-80
2021/03/29 11:23:49;;;;;;;5.32;3.00;;;20.40;59.50;;;;;;5058734;28;20064;-80
2021/03/29 11:26:16;;;;;;;4.70;3.08;;;20.50;59.50;;;;;;5059698;28;20098;-80
2021/03/29 11:28:43;;;;;;;7.45;3.60;;;20.60;59.80;;;;;;5058710;28;20144;-78
2021/03/29 11:31:10;;;;;;;9.38;3.58;;;20.60;59.50;;;;;;5058254;28;20049;-80
2021/03/29 11:33:36;;;;;;;6.95;3.47;;;20.70;59.80;;;;;;5060290;28;20159;-80
2021/03/29 11:36:03;;;;;;;6.85;3.10;;;20.70;59.70;;;;;;5057169;28;20045;-78
2021/03/29 11:38:30;;;;;;;7.28;3.70;;;20.70;58.30;;;;;;5055455;28;20162;-79
2021/03/29 11:40:56;;;;;;;7.25;3.22;;;20.60;58.80;;;;;;5056554;28;20055;-79
2021/03/29 11:43:23;;;;;;;7.72;3.17;;;20.60;57.90;;;;;;5058310;28;20291;-78
2021/03/29 11:45:58;;;;;;;10.50;3.50;;;20.70;58.70;;;;;;5061343;28;20108;-80
2021/03/29 11:48:25;;;;;;;7.38;3.20;;;20.80;59.40;;;;;;5058826;28;20053;-80
2021/03/29 11:50:51;;;;;;;6.45;3.58;;;20.90;58.70;;;;;;5058560;28;20087;-80
2021/03/29 11:53:18;;;;;;;8.55;4.18;;;20.90;57.90;;;;;;5059629;28;20532;-80
2021/03/29 11:55:45;;;;;;;9.63;3.78;;;20.80;58.70;;;;;;5059359;28;20505;-79
2021/03/29 11:58:12;;;;;;;6.93;3.63;;;20.90;59.40;;;;;;5059564;28;20080;-80
2021/03/29 12:00:49;;;;;;;7.25;3.30;;;20.90;59.60;;;;;;5057445;28;20048;-80
2021/03/29 12:03:21;;;;;;;5.72;3.55;;;21.00;59.70;;;;;;5058133;28;20049;-79
2021/03/29 12:05:53;;;;;;;5.95;3.22;;;21.10;62.70;;;;;;5055829;28;20099;-79
2021/03/29 12:08:25;;;;;;;6.70;3.00;;;21.20;60.90;;;;;;5056725;28;20057;-77
2021/03/29 12:13:37;;;;;;;8.20;3.75;;;21.20;58.90;;;;;;5053513;28;20056;-78
2021/03/29 12:16:06;;;;;;;9.50;3.67;;;21.10;58.40;;;;;;5053965;28;20183;-78
2021/03/29 12:18:40;;;;;;;10.20;3.42;;;21.20;60.00;;;;;;5054241;28;20061;-77
2021/03/29 12:21:10;;;;;;;8.55;3.97;;;21.30;60.30;;;;;;5052614;28;20095;-78
2021/03/29 12:23:40;;;;;;;8.88;3.80;;;21.30;59.10;;;;;;5053477;28;20574;-78
2021/03/29 12:26:06;;;;;;;6.38;3.33;;;21.30;59.20;;;;;;5055580;28;20513;-76
2021/03/29 12:28:35;;;;;;;6.78;3.63;;;21.40;58.50;;;;;;5053951;28;20136;-79
2021/03/29 12:31:02;;;;;;;7.80;3.60;;;21.40;58.40;;;;;;5053593;28;20088;-78
2021/03/29 12:33:30;;;;;;;5.68;3.55;;;21.40;57.40;;;;;;5054484;28;20084;-80
2021/03/29 12:35:58;;;;;;;7.28;3.50;;;21.40;57.40;;;;;;5054847;28;20049;-79
2021/03/29 12:38:29;;;;;;;7.97;4.28;;;21.40;58.80;;;;;;5055490;28;20049;-79
2021/03/29 12:40:57;;;;;;;11.85;3.85;;;21.40;58.90;;;;;;5055520;28;20098;-79
2021/03/29 12:43:33;;;;;;;11.10;4.10;;;21.40;56.80;;;;;;5054997;28;20056;-79
2021/03/29 12:46:03;;;;;;;7.43;3.40;;;21.40;51.40;;;;;;5057165;28;20045;-80
2021/03/29 12:48:31;;;;;;;9.23;3.33;;;21.40;51.70;;;;;;5054117;28;20048;-79
2021/03/29 12:51:17;;;;;;;19.67;4.63;;;21.30;51.00;;;;;;5067081;28;20066;-78
2021/03/29 12:53:48;;;;;;;8.07;3.60;;;21.30;52.50;;;;;;5069808;28;20055;-80
2021/03/29 12:56:17;;;;;;;4.85;3.45;;;21.30;50.70;;;;;;5069210;28;20398;-82
2021/03/29 12:58:50;;;;;;;11.63;3.80;;;21.40;51.00;;;;;;5072804;28;20045;-79
2021/03/29 13:01:24;;;;;;;11.23;4.43;;;21.50;51.80;;;;;;5068506;28;20052;-79